createdAt,value
2022-08-11T00:01:59.779Z,98043.09
2022-08-11T00:04:34.517Z,98039.06
2022-08-11T00:07:04.882Z,98050.22
2022-08-11T00:09:39.278Z,98046.66
2022-08-11T00:12:14.703Z,98045.09
2022-08-11T00:14:43.440Z,98039.31
2022-08-11T00:17:13.014Z,98042.00
2022-08-11T00:20:12.273Z,98049.06
2022-08-11T00:22:35.079Z,98052.84
2022-08-11T00:25:11.454Z,98049.25
2022-08-11T00:27:40.134Z,98046.94
2022-08-11T00:30:12.317Z,98045.78
2022-08-11T00:32:40.133Z,98041.75
2022-08-11T00:35:51.413Z,98040.75
2022-08-11T00:37:58.070Z,98043.19
2022-08-11T00:40:37.644Z,98038.66
2022-08-11T00:43:20.970Z,98033.84
2022-08-11T00:46:06.458Z,98033.25
2022-08-11T00:48:55.410Z,98035.69
2022-08-11T00:52:02.060Z,98031.44
2022-08-11T00:54:27.662Z,98027.78
2022-08-11T00:57:36.356Z,98028.59
2022-08-11T01:00:19.047Z,98026.31
2022-08-11T01:03:18.030Z,98019.19
2022-08-11T01:06:26.918Z,98025.63
2022-08-11T01:09:17.961Z,98023.03
2022-08-11T01:12:21.601Z,98023.69
2022-08-11T01:15:07.603Z,98027.63
2022-08-11T01:18:08.399Z,98025.19
2022-08-11T01:21:17.651Z,98025.00
2022-08-11T01:24:09.063Z,98020.69
2022-08-11T01:27:19.040Z,98014.75
2022-08-11T01:30:20.673Z,98016.56
2022-08-11T01:33:02.594Z,98017.91
2022-08-11T01:35:55.236Z,98024.97
2022-08-11T01:38:46.636Z,98020.84
2022-08-11T01:41:25.032Z,98023.06
2022-08-11T01:44:39.712Z,98014.94
2022-08-11T01:47:53.058Z,98014.44
2022-08-11T01:50:38.362Z,98014.44
2022-08-11T01:53:36.029Z,98008.84
2022-08-11T01:56:22.431Z,98008.78
2022-08-11T01:59:17.385Z,98007.69
2022-08-11T02:02:44.433Z,98009.69
2022-08-11T02:05:23.230Z,98005.25
2022-08-11T02:07:58.338Z,97999.38
2022-08-11T02:10:56.972Z,98002.59
2022-08-11T02:13:53.503Z,98000.03
2022-08-11T02:16:59.175Z,98004.56
2022-08-11T02:20:09.287Z,98002.16
2022-08-11T02:24:04.303Z,98003.59
2022-08-11T02:26:23.154Z,97999.59
2022-08-11T02:29:26.162Z,97997.56
2022-08-11T02:32:42.807Z,97998.00
2022-08-11T02:35:28.175Z,98001.09
2022-08-11T02:38:16.411Z,98008.31
2022-08-11T02:41:31.297Z,98016.19
2022-08-11T02:44:20.869Z,98009.44
2022-08-11T02:47:14.562Z,98006.03
2022-08-11T02:50:07.680Z,98008.91
2022-08-11T02:53:02.180Z,98014.28
2022-08-11T02:55:57.912Z,98017.97
2022-08-11T02:58:41.379Z,98025.94
2022-08-11T03:01:28.606Z,98022.25
2022-08-11T03:04:09.158Z,98031.09
2022-08-11T03:06:52.484Z,98026.28
2022-08-11T03:09:27.434Z,98013.97
2022-08-11T03:12:53.820Z,98024.50
2022-08-11T03:15:48.035Z,98018.19
2022-08-11T03:18:26.914Z,98028.72
2022-08-11T03:21:23.612Z,98020.78
2022-08-11T03:24:03.462Z,98029.31
2022-08-11T03:26:54.859Z,98020.75
2022-08-11T03:29:35.675Z,98028.66
2022-08-11T03:32:19.477Z,98037.41
2022-08-11T03:34:48.160Z,98037.41
2022-08-11T03:37:53.109Z,98038.03
2022-08-11T03:40:38.235Z,98044.88
2022-08-11T03:43:45.585Z,98043.13
2022-08-11T03:46:35.939Z,98051.28
2022-08-11T03:49:20.940Z,98049.22
2022-08-11T03:51:55.790Z,98054.78
2022-08-11T03:54:43.094Z,98058.88
2022-08-11T03:57:30.833Z,98064.63
2022-08-11T04:00:10.124Z,98069.34
2022-08-11T04:02:57.661Z,98069.53
2022-08-11T04:05:42.286Z,98066.41
2022-08-11T04:08:11.850Z,98068.25
2022-08-11T04:10:50.534Z,98063.72
2022-08-11T04:13:23.116Z,98062.22
2022-08-11T04:16:16.337Z,98072.00
2022-08-11T04:19:47.235Z,98064.19
2022-08-11T04:22:23.031Z,98062.16
2022-08-11T04:25:16.272Z,98068.50
2022-08-11T04:28:07.554Z,98057.13
2022-08-11T04:30:56.008Z,98067.25
2022-08-11T04:34:07.034Z,98066.19
2022-08-11T04:37:13.607Z,98057.72
2022-08-11T04:40:04.931Z,98068.88
2022-08-11T04:43:21.622Z,98065.00
2022-08-11T04:46:03.368Z,98070.41
2022-08-11T04:49:10.942Z,98068.59
2022-08-11T04:52:19.350Z,98075.28
2022-08-11T04:55:37.817Z,98064.19
2022-08-11T04:58:32.115Z,98064.84
2022-08-11T05:01:42.376Z,98064.66
2022-08-11T05:04:58.445Z,98072.31
2022-08-11T05:07:52.530Z,98069.09
2022-08-11T05:10:43.159Z,98063.66
2022-08-11T05:13:30.362Z,98064.38
2022-08-11T05:16:27.718Z,98063.88
2022-08-11T05:19:16.256Z,98057.34
2022-08-11T05:22:10.870Z,98057.75
2022-08-11T05:25:03.024Z,98053.13
2022-08-11T05:28:10.280Z,98048.28
2022-08-11T05:31:00.439Z,98050.94
2022-08-11T05:33:55.317Z,98053.75
2022-08-11T05:36:37.451Z,98055.16
2022-08-11T05:39:36.214Z,98045.91
2022-08-11T05:42:29.858Z,98051.91
2022-08-11T05:45:58.122Z,98048.25
2022-08-11T05:48:40.815Z,98042.22
2022-08-11T05:51:30.433Z,98046.09
2022-08-11T05:54:29.283Z,98042.25
2022-08-11T05:56:59.984Z,98044.69
2022-08-11T05:59:31.071Z,98051.88
2022-08-11T06:02:06.034Z,98044.41
2022-08-11T06:04:34.411Z,98050.34
2022-08-11T06:07:09.342Z,98048.81
2022-08-11T06:09:49.235Z,98057.28
2022-08-11T06:12:22.775Z,98051.16
2022-08-11T06:14:57.186Z,98051.16
2022-08-11T06:17:26.451Z,98048.97
2022-08-11T06:20:13.237Z,98045.88
2022-08-11T06:22:43.923Z,98044.63
2022-08-11T06:25:12.346Z,98044.75
2022-08-11T06:27:42.040Z,98045.03
2022-08-11T06:30:19.460Z,98049.22
2022-08-11T06:32:51.394Z,98043.81
2022-08-11T06:35:37.988Z,98047.78
2022-08-11T06:38:35.091Z,98044.00
2022-08-11T06:41:25.978Z,98049.69
2022-08-11T06:44:14.369Z,98049.81
2022-08-11T06:46:44.115Z,98044.09
2022-08-11T06:49:32.072Z,98040.81
2022-08-11T06:52:32.132Z,98045.78
2022-08-11T06:55:05.541Z,98042.84
2022-08-11T06:57:56.351Z,98044.91
2022-08-11T07:00:30.554Z,98039.28
2022-08-11T07:03:11.591Z,98045.78
2022-08-11T07:05:39.004Z,98042.41
2022-08-11T07:09:02.322Z,98036.84
2022-08-11T07:12:06.578Z,98031.66
2022-08-11T07:15:00.131Z,98039.47
2022-08-11T07:17:30.235Z,98030.97
2022-08-11T07:20:19.891Z,98032.47
2022-08-11T07:23:13.079Z,98037.19
2022-08-11T07:26:01.185Z,98029.31
2022-08-11T07:28:48.980Z,98033.47
2022-08-11T07:31:40.682Z,98026.69
2022-08-11T07:34:12.071Z,98031.38
2022-08-11T07:36:46.067Z,98032.81
2022-08-11T07:39:21.043Z,98032.56
2022-08-11T07:41:50.531Z,98026.59
2022-08-11T07:44:18.027Z,98026.94
2022-08-11T07:47:09.298Z,98023.50
2022-08-11T07:49:56.615Z,98025.31
2022-08-11T07:52:32.249Z,98019.63
2022-08-11T07:55:06.313Z,98017.44
2022-08-11T07:58:15.017Z,98020.25
2022-08-11T08:01:23.664Z,98014.25
2022-08-11T08:04:09.806Z,98010.97
2022-08-11T08:06:56.488Z,98013.59
2022-08-11T08:09:43.220Z,98017.75
2022-08-11T08:12:28.875Z,98008.91
2022-08-11T08:15:15.651Z,98007.66
2022-08-11T08:18:20.753Z,98009.31
2022-08-11T08:20:45.491Z,98007.09
2022-08-11T08:23:13.035Z,98004.16
2022-08-11T08:25:41.920Z,98009.44
2022-08-11T08:28:20.774Z,98001.44
2022-08-11T08:30:56.197Z,97999.19
2022-08-11T08:33:25.574Z,97997.03
2022-08-11T08:36:11.607Z,97992.34
2022-08-11T08:38:42.609Z,97997.84
2022-08-11T08:41:10.218Z,97999.47
2022-08-11T08:43:48.575Z,97988.25
2022-08-11T08:46:22.189Z,97984.91
2022-08-11T08:48:49.605Z,97985.84
2022-08-11T08:52:01.463Z,97994.56
2022-08-11T08:54:28.051Z,97982.66
2022-08-11T08:56:56.828Z,97985.47
2022-08-11T08:59:47.645Z,97975.94
2022-08-11T09:02:14.479Z,97974.06
2022-08-11T09:04:45.635Z,97971.63
2022-08-11T09:07:15.414Z,97976.47
2022-08-11T09:09:58.170Z,97965.31
2022-08-11T09:12:36.579Z,97968.91
2022-08-11T09:15:22.260Z,97965.63
2022-08-11T09:17:53.367Z,97962.66
2022-08-11T09:20:25.938Z,97970.06
2022-08-11T09:24:08.720Z,97959.81
2022-08-11T09:26:22.154Z,97960.75
2022-08-11T09:28:58.108Z,97957.25
2022-08-11T09:31:26.748Z,97962.03
2022-08-11T09:33:55.446Z,97948.00
2022-08-11T09:36:41.375Z,97949.78
2022-08-11T09:39:27.792Z,97953.63
2022-08-11T09:42:00.393Z,97941.53
2022-08-11T09:44:49.218Z,97945.63
2022-08-11T09:47:21.466Z,97942.59
2022-08-11T09:49:49.049Z,97936.81
2022-08-11T09:52:18.465Z,97937.63
2022-08-11T09:54:48.751Z,97926.34
2022-08-11T09:57:37.480Z,97930.34
2022-08-11T10:00:09.559Z,97931.88
2022-08-11T10:02:47.430Z,97928.59
2022-08-11T10:05:36.759Z,97920.19
2022-08-11T10:08:05.043Z,97920.59
2022-08-11T10:10:36.293Z,97907.09
2022-08-11T10:14:31.915Z,97913.34
2022-08-11T10:16:14.630Z,97904.31
2022-08-11T10:18:53.960Z,97900.50
2022-08-11T10:21:37.562Z,97907.91
2022-08-11T10:24:25.772Z,97892.50
2022-08-11T10:26:54.870Z,97891.44
2022-08-11T10:30:02.172Z,97887.13
2022-08-11T10:32:58.524Z,97890.75
2022-08-11T10:35:29.449Z,97876.56
2022-08-11T10:38:05.848Z,97879.69
2022-08-11T10:40:38.900Z,97869.34
2022-08-11T10:43:10.367Z,97868.28
2022-08-11T10:45:57.584Z,97862.75
2022-08-11T10:48:26.942Z,97864.44
2022-08-11T10:51:13.805Z,97850.00
2022-08-11T10:54:12.348Z,97862.69
2022-08-11T10:56:59.046Z,97851.50
2022-08-11T10:59:28.234Z,97854.09
2022-08-11T11:01:55.485Z,97851.75
2022-08-11T11:04:40.050Z,97853.56
2022-08-11T11:07:16.825Z,97855.00
2022-08-11T11:09:46.385Z,97856.50
2022-08-11T11:12:42.603Z,97853.13
2022-08-11T11:15:29.263Z,97842.38
2022-08-11T11:18:09.383Z,97840.91
2022-08-11T11:20:47.674Z,97843.91
2022-08-11T11:23:38.194Z,97848.81
2022-08-11T11:26:27.544Z,97839.78
2022-08-11T11:29:25.008Z,97833.78
2022-08-11T11:32:19.571Z,97837.13
2022-08-11T11:35:18.487Z,97839.03
2022-08-11T11:38:03.403Z,97822.75
2022-08-11T11:40:32.301Z,97826.53
2022-08-11T11:43:00.537Z,97827.53
2022-08-11T11:45:27.904Z,97834.03
2022-08-11T11:47:56.228Z,97818.69
2022-08-11T11:50:31.731Z,97818.28
2022-08-11T11:53:01.997Z,97828.16
2022-08-11T11:55:29.820Z,97817.72
2022-08-11T11:58:18.825Z,97823.19
2022-08-11T12:01:05.843Z,97813.63
2022-08-11T12:03:34.470Z,97811.22
2022-08-11T12:06:02.932Z,97805.75
2022-08-11T12:08:31.246Z,97812.94
2022-08-11T12:11:22.108Z,97800.22
2022-08-11T12:13:52.114Z,97803.63
2022-08-11T12:16:33.384Z,97795.66
2022-08-11T12:19:05.908Z,97789.16
2022-08-11T12:21:35.893Z,97785.00
2022-08-11T12:24:22.369Z,97788.59
2022-08-11T12:27:02.770Z,97781.81
2022-08-11T12:29:41.133Z,97788.66
2022-08-11T12:32:11.303Z,97788.41
2022-08-11T12:34:38.109Z,97778.06
2022-08-11T12:37:10.825Z,97780.06
2022-08-11T12:40:16.811Z,97767.44
2022-08-11T12:43:21.659Z,97759.78
2022-08-11T12:45:58.437Z,97765.00
2022-08-11T12:48:58.855Z,97758.81
2022-08-11T12:52:01.599Z,97759.81
2022-08-11T12:55:00.763Z,97746.00
2022-08-11T12:58:03.733Z,97743.22
2022-08-11T13:00:50.689Z,97743.56
2022-08-11T13:03:38.844Z,97735.13
2022-08-11T13:06:06.512Z,97737.88
2022-08-11T13:08:36.716Z,97733.16
2022-08-11T13:11:22.941Z,97741.72
2022-08-11T13:13:57.068Z,97738.53
2022-08-11T13:16:28.669Z,97734.19
2022-08-11T13:18:57.912Z,97728.59
2022-08-11T13:21:26.564Z,97725.72
2022-08-11T13:24:01.086Z,97733.66
2022-08-11T13:26:47.395Z,97730.84
2022-08-11T13:29:23.305Z,97714.88
2022-08-11T13:31:52.219Z,97711.81
2022-08-11T13:34:21.377Z,97707.28
2022-08-11T13:36:52.182Z,97708.97
2022-08-11T13:39:22.869Z,97702.47
2022-08-11T13:41:51.211Z,97705.84
2022-08-11T13:44:24.814Z,97706.84
2022-08-11T13:46:54.192Z,97697.72
2022-08-11T13:49:22.013Z,97694.19
2022-08-11T13:51:49.637Z,97694.31
2022-08-11T13:54:21.491Z,97685.63
2022-08-11T13:56:52.813Z,97680.78
2022-08-11T13:59:23.100Z,97694.00
2022-08-11T14:02:19.762Z,97679.66
2022-08-11T14:04:49.539Z,97686.53
2022-08-11T14:07:20.644Z,97678.91
2022-08-11T14:09:48.251Z,97684.91
2022-08-11T14:12:44.907Z,97683.25
2022-08-11T14:15:19.933Z,97676.91
2022-08-11T14:17:57.354Z,97674.22
2022-08-11T14:20:39.374Z,97669.84
2022-08-11T14:23:11.363Z,97668.03
2022-08-11T14:26:02.291Z,97660.41
2022-08-11T14:28:37.510Z,97657.72
2022-08-11T14:31:09.606Z,97661.59
2022-08-11T14:33:58.323Z,97653.66
2022-08-11T14:36:28.659Z,97660.44
2022-08-11T14:38:55.889Z,97652.03
2022-08-11T14:42:12.462Z,97656.03
2022-08-11T14:44:50.572Z,97644.88
2022-08-11T14:47:24.066Z,97650.19
2022-08-11T14:49:58.075Z,97651.53
2022-08-11T14:52:39.175Z,97650.53
2022-08-11T14:55:26.526Z,97645.13
2022-08-11T14:57:56.693Z,97648.22
2022-08-11T15:00:24.359Z,97644.03
2022-08-11T15:03:10.518Z,97650.84
2022-08-11T15:05:57.062Z,97645.56
2022-08-11T15:08:52.629Z,97641.53
2022-08-11T15:11:41.838Z,97640.25
2022-08-11T15:14:10.416Z,97646.97
2022-08-11T15:17:00.451Z,97643.34
2022-08-11T15:19:29.979Z,97635.59
2022-08-11T15:22:27.386Z,97641.28
2022-08-11T15:24:54.762Z,97637.97
2022-08-11T15:27:42.962Z,97631.03
2022-08-11T15:30:33.199Z,97634.41
2022-08-11T15:33:25.601Z,97630.56
2022-08-11T15:36:26.643Z,97624.13
2022-08-11T15:39:35.046Z,97623.41
2022-08-11T15:42:30.797Z,97620.75
2022-08-11T15:45:21.541Z,97619.13
2022-08-11T15:48:02.479Z,97620.78
2022-08-11T15:50:36.374Z,97624.38
2022-08-11T15:53:11.858Z,97623.69
2022-08-11T15:55:39.420Z,97625.03
2022-08-11T15:58:28.130Z,97622.69
2022-08-11T16:01:16.517Z,97627.84
2022-08-11T16:04:12.193Z,97618.63
2022-08-11T16:07:01.084Z,97623.16
2022-08-11T16:09:46.020Z,97625.25
2022-08-11T16:12:18.824Z,97624.38
2022-08-11T16:15:09.132Z,97619.81
2022-08-11T16:17:44.445Z,97615.94
2022-08-11T16:20:14.479Z,97620.88
2022-08-11T16:22:55.208Z,97626.25
2022-08-11T16:27:03.823Z,97620.41
2022-08-11T16:28:20.621Z,97621.22
2022-08-11T16:30:49.057Z,97625.22
2022-08-11T16:33:48.047Z,97611.56
2022-08-11T16:36:24.291Z,97613.19
2022-08-11T16:38:52.754Z,97615.72
2022-08-11T16:41:42.735Z,97614.69
2022-08-11T16:44:37.773Z,97612.00
2022-08-11T16:47:07.712Z,97620.72
2022-08-11T16:49:42.976Z,97620.16
2022-08-11T16:52:15.171Z,97620.44
2022-08-11T16:54:44.546Z,97624.56
2022-08-11T16:57:42.813Z,97624.19
2022-08-11T17:00:15.309Z,97626.34
2022-08-11T17:03:05.995Z,97622.88
2022-08-11T17:05:57.314Z,97630.72
2022-08-11T17:09:03.438Z,97636.66
2022-08-11T17:11:52.698Z,97635.91
2022-08-11T17:14:50.248Z,97634.94
2022-08-11T17:17:21.341Z,97638.91
2022-08-11T17:20:39.564Z,97626.84
2022-08-11T17:23:01.905Z,97635.28
2022-08-11T17:25:32.268Z,97636.81
2022-08-11T17:28:20.751Z,97631.69
2022-08-11T17:31:21.998Z,97643.00
2022-08-11T17:34:10.118Z,97633.34
2022-08-11T17:36:41.660Z,97628.75
2022-08-11T17:39:13.263Z,97636.50
2022-08-11T17:41:59.059Z,97634.41
2022-08-11T17:44:45.377Z,97640.22
2022-08-11T17:47:32.204Z,97641.19
2022-08-11T17:50:14.592Z,97645.69
2022-08-11T17:53:04.425Z,97648.94
2022-08-11T17:55:53.598Z,97651.94
2022-08-11T17:58:40.009Z,97652.44
2022-08-11T18:01:10.585Z,97652.44
2022-08-11T18:03:40.707Z,97659.16
2022-08-11T18:06:12.226Z,97655.06
2022-08-11T18:09:03.649Z,97664.84
2022-08-11T18:12:06.826Z,97666.00
2022-08-11T18:14:58.549Z,97658.81
2022-08-11T18:17:43.860Z,97670.13
2022-08-11T18:20:29.290Z,97671.69
2022-08-11T18:23:15.089Z,97672.34
2022-08-11T18:26:06.461Z,97681.38
2022-08-11T18:29:02.358Z,97675.72
2022-08-11T18:31:54.234Z,97688.91
2022-08-11T18:34:48.295Z,97687.66
2022-08-11T18:37:38.031Z,97690.22
2022-08-11T18:40:29.837Z,97688.75
2022-08-11T18:43:20.345Z,97694.25
2022-08-11T18:46:10.544Z,97696.50
2022-08-11T18:49:10.638Z,97699.69
2022-08-11T18:52:00.143Z,97694.09
2022-08-11T18:54:48.879Z,97699.50
2022-08-11T18:57:49.405Z,97695.81
2022-08-11T19:00:41.748Z,97700.78
2022-08-11T19:03:29.866Z,97710.88
2022-08-11T19:06:38.234Z,97703.06
2022-08-11T19:09:26.129Z,97714.59
2022-08-11T19:12:13.417Z,97713.16
2022-08-11T19:15:00.110Z,97717.97
2022-08-11T19:17:46.885Z,97713.16
2022-08-11T19:20:36.500Z,97708.31
2022-08-11T19:23:24.866Z,97714.47
2022-08-11T19:26:11.760Z,97712.50
2022-08-11T19:29:00.456Z,97711.41
2022-08-11T19:31:46.679Z,97713.69
2022-08-11T19:34:35.536Z,97715.84
2022-08-11T19:37:25.041Z,97719.19
2022-08-11T19:40:13.069Z,97728.75
2022-08-11T19:43:00.176Z,97734.00
2022-08-11T19:45:52.629Z,97726.16
2022-08-11T19:48:43.348Z,97728.31
2022-08-11T19:51:30.078Z,97732.38
2022-08-11T19:54:17.822Z,97731.66
2022-08-11T19:57:04.546Z,97737.66
2022-08-11T19:59:50.738Z,97741.13
2022-08-11T20:02:35.947Z,97734.53
2022-08-11T20:05:21.173Z,97731.34
2022-08-11T20:08:08.057Z,97733.47
2022-08-11T20:10:55.232Z,97732.75
2022-08-11T20:13:43.577Z,97720.41
2022-08-11T20:16:33.132Z,97731.66
2022-08-11T20:19:26.349Z,97735.50
2022-08-11T20:22:27.005Z,97730.22
2022-08-11T20:25:14.362Z,97731.66
2022-08-11T20:28:03.884Z,97742.22
2022-08-11T20:30:51.698Z,97735.00
2022-08-11T20:33:39.284Z,97738.47
2022-08-11T20:36:26.011Z,97745.44
2022-08-11T20:39:12.680Z,97742.56
2022-08-11T20:42:00.096Z,97746.97
2022-08-11T20:44:47.720Z,97750.56
2022-08-11T20:47:59.403Z,97745.56
2022-08-11T20:50:41.475Z,97739.56
2022-08-11T20:53:35.977Z,97746.03
2022-08-11T20:56:28.906Z,97755.34
2022-08-11T20:59:21.484Z,97755.47
2022-08-11T21:02:09.949Z,97748.09
2022-08-11T21:04:57.375Z,97746.63
2022-08-11T21:07:55.494Z,97743.78
2022-08-11T21:10:47.019Z,97745.41
2022-08-11T21:13:37.200Z,97741.59
2022-08-11T21:16:26.627Z,97751.75
2022-08-11T21:19:59.568Z,97751.41
2022-08-11T21:22:59.299Z,97747.38
2022-08-11T21:25:59.241Z,97751.97
2022-08-11T21:28:46.112Z,97752.28
2022-08-11T21:31:32.751Z,97758.59
2022-08-11T21:34:18.586Z,97764.09
2022-08-11T21:37:05.050Z,97765.56
2022-08-11T21:39:51.845Z,97767.66
2022-08-11T21:42:39.310Z,97762.59
2022-08-11T21:45:27.577Z,97768.50
2022-08-11T21:48:14.671Z,97762.25
2022-08-11T21:50:59.947Z,97756.25
2022-08-11T21:53:46.059Z,97762.81
2022-08-11T21:56:32.286Z,97764.31
2022-08-11T21:59:18.587Z,97767.72
2022-08-11T22:02:06.183Z,97753.28
2022-08-11T22:04:55.297Z,97769.44
2022-08-11T22:07:41.256Z,97768.78
2022-08-11T22:10:37.662Z,97770.66
2022-08-11T22:13:27.206Z,97780.00
2022-08-11T22:16:12.814Z,97771.75
2022-08-11T22:18:58.204Z,97765.94
2022-08-11T22:22:01.409Z,97765.50
2022-08-11T22:24:51.621Z,97761.66
2022-08-11T22:27:37.259Z,97757.06
2022-08-11T22:30:25.794Z,97764.31
2022-08-11T22:33:11.615Z,97760.97
2022-08-11T22:36:00.897Z,97753.22
2022-08-11T22:38:47.434Z,97752.16
2022-08-11T22:41:32.676Z,97759.66
2022-08-11T22:44:17.820Z,97749.28
2022-08-11T22:47:03.571Z,97753.75
2022-08-11T22:49:58.265Z,97750.31
2022-08-11T22:52:46.810Z,97745.38
2022-08-11T22:55:33.993Z,97738.75
2022-08-11T22:58:21.112Z,97742.34
2022-08-11T23:01:08.056Z,97747.84
2022-08-11T23:03:54.450Z,97738.53
2022-08-11T23:06:40.578Z,97737.38
2022-08-11T23:09:28.365Z,97735.41
2022-08-11T23:12:13.743Z,97733.84
2022-08-11T23:14:59.430Z,97734.03
2022-08-11T23:17:46.028Z,97732.63
2022-08-11T23:20:43.302Z,97725.84
2022-08-11T23:23:31.626Z,97727.56
2022-08-11T23:26:17.863Z,97719.72
2022-08-11T23:29:05.147Z,97727.34
2022-08-11T23:31:53.479Z,97728.97
2022-08-11T23:35:03.791Z,97724.31
2022-08-11T23:37:48.175Z,97725.34
2022-08-11T23:40:33.307Z,97728.03
2022-08-11T23:43:19.764Z,97726.75
2022-08-11T23:46:05.048Z,97725.38
2022-08-11T23:48:51.266Z,97721.28
2022-08-11T23:51:41.248Z,97722.16
2022-08-11T23:54:31.584Z,97724.41
2022-08-11T23:57:21.784Z,97718.47
